Time;durP1;ratioP1;P1;durP2;ratioP2;P2;SDS_P1;SDS_P2;PMS_P1;PMS_P2;Temp;Humidity;BMP_temperature;BMP_pressure;BME280_temperature;BME280_humidity;BME280_pressure;Samples;Min_cycle;Max_cycle;Signal;HPM_P1;HPM_P2
2022/12/06 00:00:29;;;;;;;8.20;3.90;;;;;;;;;;5114365;28;20040;-66
2022/12/06 00:02:55;;;;;;;8.77;4.13;;;;;;;;;;5114312;28;20082;-66
2022/12/06 00:05:21;;;;;;;12.80;3.78;;;;;;;;;;5093708;28;20036;-66
2022/12/06 00:07:48;;;;;;;14.05;4.32;;;;;;;;;;5093809;28;20040;-66
2022/12/06 00:10:15;;;;;;;9.88;4.30;;;;;;;;;;5110008;28;20100;-66
2022/12/06 00:12:42;;;;;;;11.98;4.00;;;;;;;;;;5113698;28;20383;-66
2022/12/06 00:15:08;;;;;;;11.82;4.30;;;;;;;;;;5113753;28;20039;-66
2022/12/06 00:17:34;;;;;;;11.60;4.50;;;;;;;;;;5113674;28;20055;-66
2022/12/06 00:20:00;;;;;;;9.57;4.22;;;;;;;;;;5113898;28;20122;-66
2022/12/06 00:22:26;;;;;;;7.63;3.97;;;;;;;;;;5114161;28;20036;-66
2022/12/06 00:24:52;;;;;;;13.98;4.82;;;;;;;;;;5114075;28;20046;-66
2022/12/06 00:27:18;;;;;;;10.20;4.40;;;;;;;;;;5113727;28;20067;-66
2022/12/06 00:29:44;;;;;;;10.57;4.50;;;;;;;;;;5112406;28;20040;-66
2022/12/06 00:32:10;;;;;;;14.40;4.82;;;;;;;;;;5113803;28;20028;-67
2022/12/06 00:34:36;;;;;;;11.38;4.90;;;;;;;;;;5113478;28;20123;-67
2022/12/06 00:37:02;;;;;;;11.15;4.38;;;;;;;;;;5113571;28;20517;-66
2022/12/06 00:39:28;;;;;;;9.02;4.07;;;;;;;;;;5113748;28;20067;-66
2022/12/06 00:41:55;;;;;;;14.65;5.10;;;;;;;;;;5113041;28;20082;-66
2022/12/06 00:44:21;;;;;;;13.10;4.72;;;;;;;;;;5113717;28;20043;-66
2022/12/06 00:46:47;;;;;;;10.25;4.70;;;;;;;;;;5113237;28;20071;-66
2022/12/06 00:49:13;;;;;;;9.63;4.68;;;;;;;;;;5112791;28;20065;-66
2022/12/06 00:51:39;;;;;;;8.98;4.38;;;;;;;;;;5113324;28;20063;-66
2022/12/06 00:54:06;;;;;;;14.60;4.50;;;;;;;;;;5112484;28;20536;-66
2022/12/06 00:56:32;;;;;;;13.10;4.75;;;;;;;;;;5113015;28;20595;-66
2022/12/06 00:58:58;;;;;;;14.15;4.07;;;;;;;;;;5113368;28;20043;-66
2022/12/06 01:01:26;;;;;;;10.43;4.35;;;;;;;;;;5113167;28;20406;-66
2022/12/06 01:03:53;;;;;;;13.10;4.03;;;;;;;;;;5105333;28;20189;-66
2022/12/06 01:06:21;;;;;;;12.57;4.07;;;;;;;;;;5092747;28;20043;-66
2022/12/06 01:08:47;;;;;;;12.73;3.90;;;;;;;;;;5096558;28;20110;-66
2022/12/06 01:11:14;;;;;;;8.27;3.83;;;;;;;;;;5112773;28;20527;-66
2022/12/06 01:13:40;;;;;;;12.50;3.55;;;;;;;;;;5112688;28;20034;-66
2022/12/06 01:16:06;;;;;;;13.55;4.15;;;;;;;;;;5113026;28;20043;-66
2022/12/06 01:18:32;;;;;;;15.05;4.10;;;;;;;;;;5112526;28;20056;-66
2022/12/06 01:21:03;;;;;;;12.15;3.95;;;;;;;;;;5112694;28;20051;-66
2022/12/06 01:23:29;;;;;;;10.10;3.50;;;;;;;;;;5112836;28;20130;-66
2022/12/06 01:25:55;;;;;;;11.77;3.72;;;;;;;;;;5112828;28;20048;-66
2022/12/06 01:28:21;;;;;;;9.20;3.40;;;;;;;;;;5112489;28;20042;-66
2022/12/06 01:30:47;;;;;;;12.98;3.92;;;;;;;;;;5112506;28;20086;-66
2022/12/06 01:33:13;;;;;;;6.50;3.45;;;;;;;;;;5112451;28;20090;-66
2022/12/06 01:35:40;;;;;;;11.93;3.75;;;;;;;;;;5111809;28;20498;-66
2022/12/06 01:38:06;;;;;;;7.80;4.05;;;;;;;;;;5112449;28;20397;-66
2022/12/06 01:40:36;;;;;;;7.88;3.50;;;;;;;;;;5112147;28;20048;-66
2022/12/06 01:43:02;;;;;;;9.10;3.83;;;;;;;;;;5112349;28;20126;-66
2022/12/06 01:45:28;;;;;;;9.30;3.30;;;;;;;;;;5112501;28;20385;-66
2022/12/06 01:47:55;;;;;;;9.75;3.58;;;;;;;;;;5112110;28;20047;-66
2022/12/06 01:50:26;;;;;;;9.20;2.80;;;;;;;;;;5111963;28;20069;-66
2022/12/06 01:53:10;;;;;;;5.75;2.65;;;;;;;;;;5112293;28;20044;-66
2022/12/06 01:55:37;;;;;;;5.38;2.33;;;;;;;;;;5111926;28;20139;-66
2022/12/06 01:58:11;;;;;;;3.85;1.90;;;;;;;;;;5112144;28;20039;-66
2022/12/06 02:00:37;;;;;;;4.68;1.85;;;;;;;;;;5112039;28;20093;-66
2022/12/06 02:03:05;;;;;;;5.55;1.77;;;;;;;;;;5110813;28;20054;-66
2022/12/06 02:05:31;;;;;;;5.22;2.15;;;;;;;;;;5091135;28;20509;-66
2022/12/06 02:07:58;;;;;;;5.57;2.22;;;;;;;;;;5091800;28;20036;-66
2022/12/06 02:10:24;;;;;;;4.68;2.10;;;;;;;;;;5108873;28;20031;-66
2022/12/06 02:12:53;;;;;;;5.75;2.20;;;;;;;;;;5111848;28;20036;-66
2022/12/06 02:15:22;;;;;;;5.55;2.28;;;;;;;;;;5112096;28;20078;-66
2022/12/06 02:17:54;;;;;;;7.25;2.08;;;;;;;;;;5111410;28;20090;-66
2022/12/06 02:20:23;;;;;;;6.20;2.05;;;;;;;;;;5112087;28;20065;-66
2022/12/06 02:23:24;;;;;;;4.47;2.05;;;;;;;;;;5111474;28;20055;-66
2022/12/06 02:26:09;;;;;;;6.25;2.33;;;;;;;;;;5028221;28;20033;-66
2022/12/06 02:28:35;;;;;;;6.97;2.20;;;;;;;;;;5086501;28;20126;-66
2022/12/06 02:31:03;;;;;;;4.10;2.58;;;;;;;;;;5091531;28;20048;-66
2022/12/06 02:33:35;;;;;;;6.93;2.50;;;;;;;;;;5091201;28;20084;-66
2022/12/06 02:36:04;;;;;;;5.70;2.53;;;;;;;;;;5091095;28;20125;-66
2022/12/06 02:38:33;;;;;;;7.07;3.10;;;;;;;;;;5091460;28;20686;-66
2022/12/06 02:41:32;;;;;;;5.82;2.63;;;;;;;;;;5091030;28;20036;-66
2022/12/06 02:44:00;;;;;;;8.80;2.58;;;;;;;;;;5057103;28;20052;-66
2022/12/06 02:46:28;;;;;;;8.70;2.85;;;;;;;;;;5091342;28;20093;-66
2022/12/06 02:48:56;;;;;;;11.63;3.10;;;;;;;;;;5090952;28;20363;-66
2022/12/06 02:51:22;;;;;;;5.47;2.67;;;;;;;;;;5091280;28;20063;-66
2022/12/06 02:53:50;;;;;;;5.43;2.85;;;;;;;;;;5091245;28;20694;-66
2022/12/06 02:56:16;;;;;;;6.10;3.28;;;;;;;;;;5090882;28;20506;-66
2022/12/06 02:58:42;;;;;;;7.53;3.25;;;;;;;;;;5091292;28;20700;-66
2022/12/06 03:01:13;;;;;;;7.57;3.20;;;;;;;;;;5090922;28;20044;-66
2022/12/06 03:03:54;;;;;;;11.38;3.55;;;;;;;;;;5096451;28;20386;-66
2022/12/06 03:06:23;;;;;;;12.52;3.17;;;;;;;;;;5111379;28;20035;-66
2022/12/06 03:09:04;;;;;;;7.05;3.58;;;;;;;;;;5111321;28;20059;-66
2022/12/06 03:11:37;;;;;;;6.95;3.20;;;;;;;;;;5111006;28;20075;-66
2022/12/06 03:14:06;;;;;;;6.03;3.13;;;;;;;;;;5111098;28;20127;-66
2022/12/06 03:16:38;;;;;;;6.40;3.05;;;;;;;;;;5111088;28;20486;-66
2022/12/06 03:19:11;;;;;;;8.07;3.17;;;;;;;;;;5113662;28;20052;-66
2022/12/06 03:21:40;;;;;;;10.63;3.13;;;;;;;;;;5115113;28;20119;-66
2022/12/06 03:24:09;;;;;;;10.93;3.72;;;;;;;;;;5114715;28;20043;-66
2022/12/06 03:26:36;;;;;;;10.05;4.28;;;;;;;;;;5113515;28;20389;-66
2022/12/06 03:29:05;;;;;;;9.10;3.45;;;;;;;;;;5115203;28;20040;-66
2022/12/06 03:31:32;;;;;;;10.07;3.20;;;;;;;;;;5114893;28;20032;-66
2022/12/06 03:34:00;;;;;;;7.82;3.30;;;;;;;;;;5114627;28;20559;-66
2022/12/06 03:36:27;;;;;;;10.82;3.63;;;;;;;;;;5114594;28;20071;-66
2022/12/06 03:38:55;;;;;;;9.02;3.70;;;;;;;;;;5114568;28;20098;-66
2022/12/06 03:41:22;;;;;;;8.20;3.10;;;;;;;;;;5114367;28;20035;-66
2022/12/06 03:43:48;;;;;;;7.93;3.30;;;;;;;;;;5114842;28;20036;-66
2022/12/06 03:46:16;;;;;;;7.32;3.22;;;;;;;;;;5114519;28;20434;-66
2022/12/06 03:48:47;;;;;;;6.22;2.97;;;;;;;;;;5114295;28;20122;-66
2022/12/06 03:51:17;;;;;;;6.90;2.95;;;;;;;;;;5114315;28;20084;-66
2022/12/06 03:53:45;;;;;;;7.40;3.22;;;;;;;;;;5114501;28;20079;-66
2022/12/06 03:56:11;;;;;;;5.55;3.00;;;;;;;;;;5114144;28;20384;-66
2022/12/06 03:58:37;;;;;;;6.80;3.03;;;;;;;;;;5113246;28;20050;-66
2022/12/06 04:01:03;;;;;;;6.18;3.20;;;;;;;;;;5114299;28;20040;-66
2022/12/06 04:03:30;;;;;;;8.10;2.95;;;;;;;;;;5109217;28;20123;-66
2022/12/06 04:05:56;;;;;;;3.83;2.10;;;;;;;;;;5093855;28;20038;-66
2022/12/06 04:08:22;;;;;;;8.73;3.33;;;;;;;;;;5093779;28;20558;-66
2022/12/06 04:10:48;;;;;;;5.15;2.20;;;;;;;;;;5113927;28;20088;-66
2022/12/06 04:13:14;;;;;;;5.20;2.72;;;;;;;;;;5114136;28;20043;-66
2022/12/06 04:15:40;;;;;;;5.97;2.45;;;;;;;;;;5114164;28;20423;-66
2022/12/06 04:18:12;;;;;;;5.35;2.30;;;;;;;;;;5113412;28;20138;-66
2022/12/06 04:23:33;;;;;;;7.80;2.92;;;;;;;;;;5114006;28;20055;-66
2022/12/06 04:25:59;;;;;;;6.25;2.30;;;;;;;;;;5113603;28;20040;-66
2022/12/06 04:39:25;;;;;;;4.60;2.72;;;;;;;;;;5113374;28;20419;-66
2022/12/06 04:44:35;;;;;;;5.00;2.15;;;;;;;;;;5113617;28;20047;-66
2022/12/06 04:47:01;;;;;;;4.90;2.60;;;;;;;;;;5113237;28;20628;-66
2022/12/06 04:49:27;;;;;;;8.05;2.25;;;;;;;;;;5113215;28;20067;-66
2022/12/06 04:51:54;;;;;;;6.85;2.42;;;;;;;;;;5112845;28;20051;-66
2022/12/06 04:54:20;;;;;;;6.72;2.55;;;;;;;;;;5112897;28;20038;-66
2022/12/06 04:56:46;;;;;;;4.40;2.28;;;;;;;;;;5113331;28;20070;-66
2022/12/06 04:59:13;;;;;;;4.22;2.30;;;;;;;;;;5113339;28;20681;-66
2022/12/06 05:01:39;;;;;;;3.80;2.40;;;;;;;;;;5112766;28;20072;-66
2022/12/06 05:04:05;;;;;;;7.22;2.70;;;;;;;;;;5103534;28;20051;-66
2022/12/06 05:06:31;;;;;;;4.50;2.00;;;;;;;;;;5092689;28;20407;-66
2022/12/06 05:08:57;;;;;;;7.93;2.72;;;;;;;;;;5097505;28;20138;-66
2022/12/06 05:11:23;;;;;;;7.55;2.50;;;;;;;;;;5112821;28;20569;-66
2022/12/06 05:13:49;;;;;;;4.88;2.05;;;;;;;;;;5113006;28;20036;-66
2022/12/06 05:16:15;;;;;;;6.55;2.58;;;;;;;;;;5112482;28;20039;-66
2022/12/06 05:18:41;;;;;;;5.45;2.38;;;;;;;;;;5112636;28;20426;-66
2022/12/06 05:21:17;;;;;;;5.70;2.35;;;;;;;;;;5112468;28;20047;-66
2022/12/06 05:23:43;;;;;;;4.47;2.40;;;;;;;;;;5112366;28;20047;-66
2022/12/06 05:26:12;;;;;;;6.38;2.50;;;;;;;;;;5112569;28;20484;-66
2022/12/06 05:28:38;;;;;;;6.20;2.42;;;;;;;;;;5112889;28;20043;-66
2022/12/06 05:31:05;;;;;;;9.77;2.30;;;;;;;;;;5112132;28;20043;-66
2022/12/06 05:33:31;;;;;;;3.72;2.22;;;;;;;;;;5112611;28;20043;-66
2022/12/06 05:35:57;;;;;;;5.68;2.80;;;;;;;;;;5112518;28;20063;-66
2022/12/06 05:38:23;;;;;;;6.57;2.65;;;;;;;;;;5112174;28;20044;-66
2022/12/06 05:40:49;;;;;;;6.43;2.72;;;;;;;;;;5112458;28;20454;-66
2022/12/06 05:43:16;;;;;;;7.40;2.63;;;;;;;;;;5112917;28;20530;-66
2022/12/06 05:45:42;;;;;;;7.60;2.90;;;;;;;;;;5112225;28;20036;-66
2022/12/06 05:48:08;;;;;;;5.90;2.45;;;;;;;;;;5113091;28;20043;-66
2022/12/06 05:50:35;;;;;;;6.05;2.80;;;;;;;;;;5112474;28;20036;-66
2022/12/06 05:53:02;;;;;;;4.22;2.38;;;;;;;;;;5112373;28;20050;-66
2022/12/06 05:55:28;;;;;;;4.25;2.60;;;;;;;;;;5112323;28;20114;-66
2022/12/06 05:57:54;;;;;;;4.28;2.33;;;;;;;;;;5112489;28;20117;-66
2022/12/06 06:00:20;;;;;;;5.90;2.42;;;;;;;;;;5111776;28;20068;-66
2022/12/06 06:02:46;;;;;;;6.13;2.95;;;;;;;;;;5112360;28;20040;-66
2022/12/06 06:05:13;;;;;;;4.95;2.58;;;;;;;;;;5093426;28;20040;-66
2022/12/06 06:07:39;;;;;;;6.40;2.45;;;;;;;;;;5096338;28;20031;-66
2022/12/06 06:10:06;;;;;;;6.65;3.30;;;;;;;;;;5113104;28;20478;-66
2022/12/06 06:12:32;;;;;;;7.72;3.00;;;;;;;;;;5112823;28;20067;-66
2022/12/06 06:14:58;;;;;;;7.03;3.55;;;;;;;;;;5113061;28;20036;-66
2022/12/06 06:17:24;;;;;;;7.38;3.35;;;;;;;;;;5112218;28;20511;-66
2022/12/06 06:19:50;;;;;;;8.88;3.40;;;;;;;;;;5111898;28;20051;-66
2022/12/06 06:22:17;;;;;;;6.90;3.20;;;;;;;;;;5111678;28;20067;-66
2022/12/06 06:24:44;;;;;;;5.50;2.75;;;;;;;;;;5112170;28;20048;-66
2022/12/06 06:27:10;;;;;;;5.30;3.10;;;;;;;;;;5112238;28;20039;-66
2022/12/06 06:29:36;;;;;;;9.73;2.83;;;;;;;;;;5112990;28;20096;-66
2022/12/06 06:32:02;;;;;;;8.55;3.05;;;;;;;;;;5112262;28;20123;-66
2022/12/06 06:34:28;;;;;;;6.80;3.05;;;;;;;;;;5112034;28;20047;-66
2022/12/06 06:36:54;;;;;;;9.00;3.28;;;;;;;;;;5111755;28;20043;-66
2022/12/06 06:39:20;;;;;;;7.43;3.00;;;;;;;;;;5112242;28;20032;-66
2022/12/06 06:41:47;;;;;;;8.07;3.00;;;;;;;;;;5112211;28;20528;-66
2022/12/06 06:44:13;;;;;;;5.28;2.97;;;;;;;;;;5112474;28;20101;-66
2022/12/06 06:46:39;;;;;;;10.30;3.47;;;;;;;;;;5110776;28;20067;-66
2022/12/06 06:49:05;;;;;;;7.15;3.13;;;;;;;;;;5111646;28;20450;-66
2022/12/06 06:51:32;;;;;;;4.63;2.75;;;;;;;;;;5112156;28;20393;-66
2022/12/06 06:53:59;;;;;;;9.60;3.00;;;;;;;;;;5115020;28;20044;-66
2022/12/06 06:56:25;;;;;;;8.88;2.97;;;;;;;;;;5115450;28;20068;-66
2022/12/06 06:58:52;;;;;;;8.00;3.30;;;;;;;;;;5116058;28;20084;-66
2022/12/06 07:01:22;;;;;;;4.65;2.95;;;;;;;;;;5114424;28;20057;-66
2022/12/06 07:03:50;;;;;;;4.78;2.72;;;;;;;;;;5116305;28;20042;-66
2022/12/06 07:06:17;;;;;;;6.60;2.95;;;;;;;;;;5116443;28;20088;-65
2022/12/06 07:08:43;;;;;;;4.85;2.88;;;;;;;;;;5106007;28;20047;-66
2022/12/06 07:11:10;;;;;;;3.95;2.63;;;;;;;;;;5113289;28;20043;-66
2022/12/06 07:13:37;;;;;;;4.38;2.65;;;;;;;;;;5115148;28;20096;-66
2022/12/06 07:16:04;;;;;;;5.03;2.92;;;;;;;;;;5115515;28;20031;-64
2022/12/06 07:18:31;;;;;;;8.38;2.75;;;;;;;;;;5115142;28;20087;-64
2022/12/06 07:20:59;;;;;;;3.90;2.65;;;;;;;;;;5115232;28;20050;-65
2022/12/06 07:23:25;;;;;;;6.35;3.10;;;;;;;;;;5115405;28;20195;-64
2022/12/06 07:26:05;;;;;;;5.18;3.10;;;;;;;;;;5114841;28;20055;-64
2022/12/06 07:28:32;;;;;;;4.88;2.72;;;;;;;;;;5114949;28;20073;-65
2022/12/06 07:30:58;;;;;;;8.52;2.92;;;;;;;;;;5114372;28;20074;-64
2022/12/06 07:33:24;;;;;;;5.93;2.97;;;;;;;;;;5109550;28;20577;-63
2022/12/06 07:35:53;;;;;;;11.52;3.15;;;;;;;;;;5110720;28;20047;-64
2022/12/06 07:38:20;;;;;;;5.30;2.95;;;;;;;;;;5113119;28;20090;-65
2022/12/06 07:40:46;;;;;;;6.90;3.25;;;;;;;;;;5105823;28;20067;-65
2022/12/06 07:45:56;;;;;;;7.55;3.42;;;;;;;;;;5113266;28;20043;-64
2022/12/06 07:48:23;;;;;;;5.35;2.88;;;;;;;;;;5114105;28;20039;-64
2022/12/06 07:50:51;;;;;;;7.95;3.70;;;;;;;;;;5107486;28;20040;-65
2022/12/06 07:53:17;;;;;;;9.88;3.88;;;;;;;;;;5113586;28;20047;-63
2022/12/06 07:55:43;;;;;;;5.90;3.38;;;;;;;;;;5112851;28;20047;-62
2022/12/06 07:58:09;;;;;;;6.93;3.42;;;;;;;;;;5107064;28;20035;-64
2022/12/06 08:00:36;;;;;;;7.57;3.35;;;;;;;;;;5113268;28;20123;-64
2022/12/06 08:03:02;;;;;;;4.95;3.33;;;;;;;;;;5113181;28;20039;-63
2022/12/06 08:05:28;;;;;;;5.68;3.63;;;;;;;;;;5113098;28;20043;-64
2022/12/06 08:07:54;;;;;;;6.50;3.40;;;;;;;;;;5112455;28;20082;-64
2022/12/06 08:10:20;;;;;;;5.75;3.50;;;;;;;;;;5111138;28;20042;-62
2022/12/06 08:12:46;;;;;;;9.70;4.15;;;;;;;;;;5111405;28;20046;-63
2022/12/06 08:15:12;;;;;;;9.45;4.55;;;;;;;;;;5111266;28;20051;-65
2022/12/06 08:17:39;;;;;;;8.65;3.80;;;;;;;;;;5112690;28;20055;-65
2022/12/06 08:20:06;;;;;;;8.18;3.78;;;;;;;;;;5113327;28;20040;-64
2022/12/06 08:22:32;;;;;;;10.10;3.95;;;;;;;;;;5108597;28;20044;-65
2022/12/06 08:24:59;;;;;;;8.57;3.65;;;;;;;;;;5100393;28;20127;-66
2022/12/06 08:27:25;;;;;;;8.05;3.83;;;;;;;;;;5097114;28;20043;-66
2022/12/06 08:29:51;;;;;;;7.65;4.18;;;;;;;;;;5105664;28;20047;-64
2022/12/06 08:32:17;;;;;;;10.70;3.70;;;;;;;;;;5112009;27;20082;-64
2022/12/06 08:34:43;;;;;;;6.75;3.60;;;;;;;;;;5112697;28;20141;-64
2022/12/06 08:37:09;;;;;;;7.82;3.50;;;;;;;;;;5108320;28;20069;-65
2022/12/06 08:39:35;;;;;;;7.30;3.67;;;;;;;;;;5093629;28;20363;-65
2022/12/06 08:42:02;;;;;;;7.63;4.18;;;;;;;;;;5107308;28;20050;-66
2022/12/06 08:44:29;;;;;;;7.45;4.10;;;;;;;;;;5111148;28;20040;-65
2022/12/06 08:46:55;;;;;;;6.35;3.90;;;;;;;;;;5112726;28;20046;-65
2022/12/06 08:49:22;;;;;;;7.47;4.38;;;;;;;;;;5112582;28;20458;-64
2022/12/06 08:51:48;;;;;;;8.00;3.90;;;;;;;;;;5112322;28;20043;-64
2022/12/06 08:54:16;;;;;;;7.28;4.15;;;;;;;;;;5112073;28;20122;-67
2022/12/06 08:56:42;;;;;;;9.18;3.60;;;;;;;;;;5112804;28;20051;-66
2022/12/06 08:59:08;;;;;;;6.38;3.45;;;;;;;;;;5112499;28;20039;-66
2022/12/06 09:01:34;;;;;;;6.82;3.60;;;;;;;;;;5112451;28;20036;-65
2022/12/06 09:04:01;;;;;;;9.95;3.53;;;;;;;;;;5104087;28;20043;-65
2022/12/06 09:06:28;;;;;;;7.15;3.13;;;;;;;;;;5107938;28;20036;-65
2022/12/06 09:08:55;;;;;;;6.18;3.22;;;;;;;;;;5112602;28;20115;-64
2022/12/06 09:11:21;;;;;;;5.35;3.05;;;;;;;;;;5092212;28;20047;-66
2022/12/06 09:13:47;;;;;;;5.43;3.22;;;;;;;;;;5104167;28;20061;-64
2022/12/06 09:16:15;;;;;;;7.53;3.20;;;;;;;;;;5102979;28;20136;-64
2022/12/06 09:18:45;;;;;;;9.38;3.45;;;;;;;;;;5112116;28;20398;-64
2022/12/06 09:21:15;;;;;;;6.13;2.90;;;;;;;;;;5111122;28;20050;-64
2022/12/06 09:23:42;;;;;;;5.28;3.30;;;;;;;;;;5112970;28;20036;-65
2022/12/06 09:26:08;;;;;;;5.78;2.90;;;;;;;;;;5112493;28;20085;-65
2022/12/06 09:28:35;;;;;;;6.40;2.85;;;;;;;;;;5112775;28;20054;-65
2022/12/06 09:31:02;;;;;;;5.38;3.05;;;;;;;;;;5112785;28;20118;-65
2022/12/06 09:33:28;;;;;;;7.03;3.00;;;;;;;;;;5112606;28;20482;-66
2022/12/06 09:35:54;;;;;;;10.32;3.10;;;;;;;;;;5111679;28;20075;-66
2022/12/06 09:38:21;;;;;;;6.85;3.20;;;;;;;;;;5111827;28;20088;-65
2022/12/06 09:40:50;;;;;;;7.88;3.13;;;;;;;;;;5112542;28;20505;-64
2022/12/06 09:43:35;;;;;;;4.85;2.70;;;;;;;;;;5111929;28;20531;-66
2022/12/06 09:46:19;;;;;;;5.07;2.90;;;;;;;;;;5111431;28;20077;-65
2022/12/06 09:48:54;;;;;;;4.45;2.60;;;;;;;;;;5108217;28;20032;-64
2022/12/06 09:51:44;;;;;;;6.10;2.75;;;;;;;;;;5111594;28;20031;-64
2022/12/06 09:54:16;;;;;;;6.78;2.92;;;;;;;;;;5101651;28;20066;-64
2022/12/06 09:56:47;;;;;;;5.53;2.70;;;;;;;;;;5112724;28;20043;-64
2022/12/06 09:59:39;;;;;;;5.10;2.67;;;;;;;;;;5112572;28;20055;-67
2022/12/06 10:02:32;;;;;;;4.30;2.53;;;;;;;;;;5096393;28;20040;-65
2022/12/06 10:05:16;;;;;;;7.07;2.88;;;;;;;;;;5104531;28;20039;-64
2022/12/06 10:08:01;;;;;;;5.18;2.60;;;;;;;;;;5096287;28;20122;-64
2022/12/06 10:10:36;;;;;;;7.85;2.80;;;;;;;;;;5110795;28;20040;-64
2022/12/06 10:13:11;;;;;;;5.45;2.58;;;;;;;;;;5110707;28;20036;-64
2022/12/06 10:15:40;;;;;;;5.35;2.60;;;;;;;;;;5110905;28;20462;-65
2022/12/06 10:18:21;;;;;;;5.00;2.65;;;;;;;;;;5109583;28;20047;-64
2022/12/06 10:20:57;;;;;;;9.00;2.92;;;;;;;;;;5103578;28;20059;-64
2022/12/06 10:23:42;;;;;;;6.45;2.47;;;;;;;;;;5099330;28;20073;-66
2022/12/06 10:26:15;;;;;;;6.10;2.97;;;;;;;;;;5104256;28;20148;-63
2022/12/06 10:28:41;;;;;;;5.75;3.08;;;;;;;;;;5114484;28;20738;-63
2022/12/06 10:31:21;;;;;;;8.93;3.22;;;;;;;;;;5114884;28;20067;-63
2022/12/06 10:33:47;;;;;;;14.23;3.20;;;;;;;;;;5113660;28;20048;-64
2022/12/06 10:36:16;;;;;;;5.40;2.67;;;;;;;;;;5096005;28;20126;-64
2022/12/06 10:38:48;;;;;;;8.80;3.20;;;;;;;;;;5109942;28;20039;-63
2022/12/06 10:41:14;;;;;;;;;;;;;;;;;;5103367;28;20047;-63
2022/12/06 10:43:53;;;;;;;6.32;3.10;;;;;;;;;;5100705;28;19916;-64
2022/12/06 10:49:15;;;;;;;7.57;3.05;;;;;;;;;;5114678;28;20483;-63
2022/12/06 10:51:45;;;;;;;5.43;3.00;;;;;;;;;;5113967;28;20397;-63
2022/12/06 10:54:34;;;;;;;5.07;2.80;;;;;;;;;;5114910;28;20051;-66
2022/12/06 10:57:04;;;;;;;6.15;2.65;;;;;;;;;;5102548;28;20063;-63
2022/12/06 10:59:38;;;;;;;6.22;3.30;;;;;;;;;;5114081;28;20493;-64
2022/12/06 11:02:19;;;;;;;5.75;2.58;;;;;;;;;;5112116;28;20074;-64
2022/12/06 11:04:46;;;;;;;6.38;3.15;;;;;;;;;;5111109;28;20034;-64
2022/12/06 11:07:16;;;;;;;5.65;2.28;;;;;;;;;;5101116;28;20063;-64
2022/12/06 11:09:46;;;;;;;4.22;2.38;;;;;;;;;;5113876;28;20063;-64
2022/12/06 11:12:18;;;;;;;3.50;1.92;;;;;;;;;;5113025;28;20100;-65
2022/12/06 11:14:47;;;;;;;3.15;2.05;;;;;;;;;;5114752;28;20031;-65
2022/12/06 11:17:23;;;;;;;4.25;2.40;;;;;;;;;;5114111;28;20055;-64
2022/12/06 11:20:08;;;;;;;2.85;2.20;;;;;;;;;;5113597;28;20080;-64
2022/12/06 11:22:42;;;;;;;5.70;2.45;;;;;;;;;;5113651;28;20075;-65
2022/12/06 11:25:08;;;;;;;4.55;1.90;;;;;;;;;;5114690;28;20127;-65
2022/12/06 11:27:40;;;;;;;4.97;2.42;;;;;;;;;;5114335;28;20672;-65
2022/12/06 11:30:12;;;;;;;6.90;2.97;;;;;;;;;;5112819;28;20044;-66
2022/12/06 11:32:40;;;;;;;7.68;2.50;;;;;;;;;;5113890;28;20138;-66
2022/12/06 11:35:10;;;;;;;5.53;2.30;;;;;;;;;;5113536;28;20042;-66
2022/12/06 11:37:37;;;;;;;6.18;2.50;;;;;;;;;;5113474;28;20036;-66
2022/12/06 11:40:20;;;;;;;4.03;2.20;;;;;;;;;;5113524;28;20197;-67
2022/12/06 11:42:46;;;;;;;6.85;2.10;;;;;;;;;;5114165;28;20100;-66
2022/12/06 11:45:32;;;;;;;6.30;2.22;;;;;;;;;;5113844;28;20604;-65
2022/12/06 11:48:03;;;;;;;5.53;2.00;;;;;;;;;;5113427;28;20098;-65
2022/12/06 11:50:30;;;;;;;3.63;1.92;;;;;;;;;;5112700;28;20059;-66
2022/12/06 11:53:01;;;;;;;5.22;1.90;;;;;;;;;;5114031;28;20039;-65
2022/12/06 11:55:36;;;;;;;5.22;1.90;;;;;;;;;;5113844;28;20075;-65
2022/12/06 11:58:14;;;;;;;4.43;2.00;;;;;;;;;;5113458;28;20035;-65
2022/12/06 12:00:55;;;;;;;5.30;1.90;;;;;;;;;;5114066;28;20134;-65
2022/12/06 12:03:31;;;;;;;3.80;2.25;;;;;;;;;;5113768;28;20554;-65
2022/12/06 12:06:16;;;;;;;4.03;2.13;;;;;;;;;;5113274;28;20046;-65
2022/12/06 12:08:54;;;;;;;4.18;1.77;;;;;;;;;;5113642;28;20176;-65
2022/12/06 12:11:21;;;;;;;5.22;1.85;;;;;;;;;;5091724;28;20112;-65
2022/12/06 12:13:52;;;;;;;8.75;1.67;;;;;;;;;;5105154;28;20515;-65
2022/12/06 12:16:23;;;;;;;6.03;1.92;;;;;;;;;;5112889;28;20407;-64
2022/12/06 12:18:54;;;;;;;4.03;1.60;;;;;;;;;;5108327;28;20048;-65
2022/12/06 12:21:31;;;;;;;5.13;2.15;;;;;;;;;;5113190;28;20537;-64
2022/12/06 12:23:57;;;;;;;6.40;1.92;;;;;;;;;;5113766;28;20067;-65
2022/12/06 12:26:33;;;;;;;4.60;1.88;;;;;;;;;;5112683;28;20131;-65
2022/12/06 12:29:02;;;;;;;4.30;2.22;;;;;;;;;;5113433;28;20080;-64
2022/12/06 12:31:28;;;;;;;6.63;2.30;;;;;;;;;;5113333;28;20071;-65
2022/12/06 12:34:14;;;;;;;3.10;1.85;;;;;;;;;;5112765;28;20061;-64
2022/12/06 12:36:45;;;;;;;3.53;1.65;;;;;;;;;;5112914;28;20035;-64
2022/12/06 12:39:21;;;;;;;4.05;1.48;;;;;;;;;;5113189;28;20038;-64
2022/12/06 12:41:47;;;;;;;3.78;1.70;;;;;;;;;;5112751;28;20446;-64
2022/12/06 12:44:15;;;;;;;7.47;1.80;;;;;;;;;;5112733;28;20076;-64
2022/12/06 12:46:43;;;;;;;5.03;2.00;;;;;;;;;;5112556;28;20039;-64
2022/12/06 12:49:28;;;;;;;4.05;1.80;;;;;;;;;;5112323;28;20382;-64
2022/12/06 12:51:54;;;;;;;3.25;1.70;;;;;;;;;;5092531;28;20044;-64
2022/12/06 12:54:23;;;;;;;4.72;1.88;;;;;;;;;;5107590;28;20502;-66
2022/12/06 12:56:50;;;;;;;6.18;1.92;;;;;;;;;;5110667;28;20036;-65
2022/12/06 12:59:18;;;;;;;3.90;2.08;;;;;;;;;;5112812;28;20396;-65
2022/12/06 13:02:11;;;;;;;4.85;1.80;;;;;;;;;;5112029;28;20077;-65
2022/12/06 13:04:40;;;;;;;4.55;2.13;;;;;;;;;;5104811;28;20566;-64
2022/12/06 13:07:11;;;;;;;4.65;1.73;;;;;;;;;;5112372;28;20046;-64
2022/12/06 13:09:47;;;;;;;3.47;1.80;;;;;;;;;;5111568;28;20119;-64
2022/12/06 13:12:17;;;;;;;4.60;1.70;;;;;;;;;;5112039;28;20080;-64
2022/12/06 13:14:59;;;;;;;3.28;1.40;;;;;;;;;;5112596;28;20093;-65
2022/12/06 13:17:26;;;;;;;2.30;1.67;;;;;;;;;;5109944;28;20513;-64
2022/12/06 13:19:53;;;;;;;3.47;1.58;;;;;;;;;;5112082;28;20118;-64
2022/12/06 13:22:26;;;;;;;5.53;1.83;;;;;;;;;;5112063;28;20047;-64
2022/12/06 13:25:00;;;;;;;3.30;1.80;;;;;;;;;;5112126;28;20484;-64
2022/12/06 13:27:27;;;;;;;4.97;1.65;;;;;;;;;;5111270;28;20059;-64
2022/12/06 13:29:56;;;;;;;4.25;1.67;;;;;;;;;;5110630;28;20047;-64
2022/12/06 13:32:26;;;;;;;2.95;1.50;;;;;;;;;;5111729;28;20382;-64
2022/12/06 13:34:55;;;;;;;8.43;2.10;;;;;;;;;;5112238;28;20036;-65
2022/12/06 13:37:42;;;;;;;3.90;1.60;;;;;;;;;;5111604;28;20047;-64
2022/12/06 13:40:27;;;;;;;6.45;1.70;;;;;;;;;;5111682;28;20036;-64
2022/12/06 13:42:53;;;;;;;6.13;2.13;;;;;;;;;;5112093;28;21092;-64
2022/12/06 13:45:42;;;;;;;3.50;1.60;;;;;;;;;;5112195;28;20086;-64
2022/12/06 13:48:23;;;;;;;4.78;1.60;;;;;;;;;;5085304;28;20734;-64
2022/12/06 13:50:52;;;;;;;2.63;1.40;;;;;;;;;;5109241;28;20046;-64
2022/12/06 13:53:19;;;;;;;4.68;1.48;;;;;;;;;;5112069;28;20501;-64
2022/12/06 13:55:49;;;;;;;8.50;1.77;;;;;;;;;;5111645;28;20092;-64
2022/12/06 13:58:15;;;;;;;5.30;1.50;;;;;;;;;;5111529;28;20413;-63
2022/12/06 14:00:41;;;;;;;5.82;1.73;;;;;;;;;;5111788;28;20036;-62
2022/12/06 14:03:13;;;;;;;6.82;1.67;;;;;;;;;;5110945;28;20043;-64
2022/12/06 14:05:59;;;;;;;3.58;1.58;;;;;;;;;;5111363;28;20044;-64
2022/12/06 14:08:31;;;;;;;4.68;1.83;;;;;;;;;;5111124;28;20051;-64
2022/12/06 14:11:09;;;;;;;4.57;2.00;;;;;;;;;;5110835;28;20050;-65
2022/12/06 14:13:35;;;;;;;5.85;2.00;;;;;;;;;;5111511;28;20085;-64
2022/12/06 14:16:01;;;;;;;4.70;1.55;;;;;;;;;;5111238;28;20474;-67
2022/12/06 14:18:28;;;;;;;6.72;1.60;;;;;;;;;;5110905;28;20134;-65
2022/12/06 14:20:56;;;;;;;5.60;1.23;;;;;;;;;;5110866;28;20040;-64
2022/12/06 14:23:24;;;;;;;9.10;1.77;;;;;;;;;;5111228;28;20055;-64
2022/12/06 14:25:50;;;;;;;3.90;1.35;;;;;;;;;;5110889;28;20039;-65
2022/12/06 14:28:17;;;;;;;3.00;1.55;;;;;;;;;;5103887;28;20105;-66
2022/12/06 14:30:45;;;;;;;3.22;1.38;;;;;;;;;;5105548;28;20040;-66
2022/12/06 14:33:23;;;;;;;4.20;1.60;;;;;;;;;;5108316;28;20043;-65
2022/12/06 14:35:50;;;;;;;4.45;1.50;;;;;;;;;;5111159;28;20481;-64
2022/12/06 14:38:22;;;;;;;3.03;1.30;;;;;;;;;;5110491;28;20035;-63
2022/12/06 14:43:33;;;;;;;6.95;1.55;;;;;;;;;;5109692;28;20039;-64
2022/12/06 14:46:01;;;;;;;3.58;2.05;;;;;;;;;;5110392;28;20474;-64
2022/12/06 14:50:22;;;;;;;7.45;2.33;;;;;;;;;;5110352;28;20039;-65
2022/12/06 14:51:21;;;;;;;7.00;2.10;;;;;;;;;;5110237;28;20086;-64
2022/12/06 14:53:47;;;;;;;3.28;1.90;;;;;;;;;;5110243;28;20040;-65
2022/12/06 14:56:31;;;;;;;4.25;1.90;;;;;;;;;;5110438;28;20119;-64
2022/12/06 14:58:58;;;;;;;6.40;1.73;;;;;;;;;;5109862;28;20115;-64
2022/12/06 15:01:29;;;;;;;4.50;1.48;;;;;;;;;;5110134;28;20039;-63
2022/12/06 15:04:03;;;;;;;3.53;1.17;;;;;;;;;;5105971;28;20071;-64
2022/12/06 15:06:30;;;;;;;2.28;1.10;;;;;;;;;;5110024;28;20040;-65
2022/12/06 15:08:56;;;;;;;4.32;1.00;;;;;;;;;;5110229;28;20480;-65
2022/12/06 15:14:12;;;;;;;2.05;1.10;;;;;;;;;;5111349;28;20043;-65
2022/12/06 15:16:38;;;;;;;5.22;1.30;;;;;;;;;;5112164;28;20042;-65
2022/12/06 15:19:04;;;;;;;6.15;1.70;;;;;;;;;;5114001;28;20684;-65
2022/12/06 15:21:31;;;;;;;4.38;1.67;;;;;;;;;;5114078;28;20040;-66